sensor_id;sensor_type;location;lat;lon;timestamp;P1;durP1;ratioP1;P2;durP2;ratioP2
9082;SDS011;4577;48.704;9.000;2023-01-01T00:01:12;15.67;;;11.40;;
9082;SDS011;4577;48.704;9.000;2023-01-01T00:03:39;17.40;;;10.97;;
9082;SDS011;4577;48.704;9.000;2023-01-01T00:06:09;17.03;;;11.30;;
9082;SDS011;4577;48.704;9.000;2023-01-01T00:08:36;19.67;;;10.80;;
9082;SDS011;4577;48.704;9.000;2023-01-01T00:11:03;18.60;;;11.20;;
9082;SDS011;4577;48.704;9.000;2023-01-01T00:13:29;16.73;;;11.90;;
9082;SDS011;4577;48.704;9.000;2023-01-01T00:15:55;15.37;;;11.70;;
9082;SDS011;4577;48.704;9.000;2023-01-01T00:18:21;19.37;;;12.07;;
9082;SDS011;4577;48.704;9.000;2023-01-01T00:20:48;18.83;;;12.70;;
9082;SDS011;4577;48.704;9.000;2023-01-01T00:23:14;18.67;;;11.90;;
9082;SDS011;4577;48.704;9.000;2023-01-01T00:25:40;18.80;;;11.80;;
9082;SDS011;4577;48.704;9.000;2023-01-01T00:28:06;20.47;;;12.17;;
9082;SDS011;4577;48.704;9.000;2023-01-01T00:30:34;19.77;;;12.47;;
9082;SDS011;4577;48.704;9.000;2023-01-01T00:33:00;21.30;;;13.50;;
9082;SDS011;4577;48.704;9.000;2023-01-01T00:35:26;18.80;;;13.17;;
9082;SDS011;4577;48.704;9.000;2023-01-01T00:37:52;18.83;;;12.60;;
9082;SDS011;4577;48.704;9.000;2023-01-01T00:40:18;14.23;;;10.83;;
9082;SDS011;4577;48.704;9.000;2023-01-01T00:42:44;18.10;;;11.97;;
9082;SDS011;4577;48.704;9.000;2023-01-01T00:45:11;16.97;;;11.33;;
9082;SDS011;4577;48.704;9.000;2023-01-01T00:47:36;17.23;;;12.00;;
9082;SDS011;4577;48.704;9.000;2023-01-01T00:50:02;26.07;;;12.43;;
9082;SDS011;4577;48.704;9.000;2023-01-01T00:52:28;22.43;;;12.53;;
9082;SDS011;4577;48.704;9.000;2023-01-01T00:54:54;20.73;;;11.90;;
9082;SDS011;4577;48.704;9.000;2023-01-01T00:57:20;17.50;;;11.37;;
9082;SDS011;4577;48.704;9.000;2023-01-01T00:59:46;16.10;;;11.70;;
9082;SDS011;4577;48.704;9.000;2023-01-01T01:02:12;20.30;;;12.53;;
9082;SDS011;4577;48.704;9.000;2023-01-01T01:04:37;19.40;;;12.80;;
9082;SDS011;4577;48.704;9.000;2023-01-01T01:07:03;23.03;;;13.67;;
9082;SDS011;4577;48.704;9.000;2023-01-01T01:09:29;92.43;;;55.23;;
9082;SDS011;4577;48.704;9.000;2023-01-01T01:11:54;31.67;;;21.00;;
9082;SDS011;4577;48.704;9.000;2023-01-01T01:14:20;41.33;;;29.70;;
9082;SDS011;4577;48.704;9.000;2023-01-01T01:16:46;26.43;;;16.30;;
9082;SDS011;4577;48.704;9.000;2023-01-01T01:19:12;21.20;;;13.93;;
9082;SDS011;4577;48.704;9.000;2023-01-01T01:21:42;24.13;;;14.37;;
9082;SDS011;4577;48.704;9.000;2023-01-01T01:24:11;22.43;;;13.83;;
9082;SDS011;4577;48.704;9.000;2023-01-01T01:26:37;25.90;;;14.30;;
9082;SDS011;4577;48.704;9.000;2023-01-01T01:29:03;24.83;;;15.20;;
9082;SDS011;4577;48.704;9.000;2023-01-01T01:31:30;22.13;;;14.30;;
9082;SDS011;4577;48.704;9.000;2023-01-01T01:33:59;19.63;;;14.30;;
9082;SDS011;4577;48.704;9.000;2023-01-01T01:36:25;22.33;;;13.80;;
9082;SDS011;4577;48.704;9.000;2023-01-01T01:38:51;25.47;;;14.63;;
9082;SDS011;4577;48.704;9.000;2023-01-01T01:41:18;25.30;;;14.97;;
9082;SDS011;4577;48.704;9.000;2023-01-01T01:43:50;24.30;;;13.60;;
9082;SDS011;4577;48.704;9.000;2023-01-01T01:48:54;22.60;;;14.37;;
9082;SDS011;4577;48.704;9.000;2023-01-01T01:51:24;22.30;;;13.97;;
9082;SDS011;4577;48.704;9.000;2023-01-01T01:53:55;25.00;;;15.70;;
9082;SDS011;4577;48.704;9.000;2023-01-01T01:56:33;20.50;;;13.87;;
9082;SDS011;4577;48.704;9.000;2023-01-01T01:59:24;23.23;;;13.83;;
9082;SDS011;4577;48.704;9.000;2023-01-01T02:01:53;27.47;;;13.37;;
9082;SDS011;4577;48.704;9.000;2023-01-01T02:04:19;18.43;;;13.13;;
9082;SDS011;4577;48.704;9.000;2023-01-01T02:06:46;23.00;;;13.53;;
9082;SDS011;4577;48.704;9.000;2023-01-01T02:09:12;20.60;;;13.33;;
9082;SDS011;4577;48.704;9.000;2023-01-01T02:11:38;20.37;;;12.77;;
9082;SDS011;4577;48.704;9.000;2023-01-01T02:14:04;15.63;;;11.03;;
9082;SDS011;4577;48.704;9.000;2023-01-01T02:22:30;10.90;;;6.97;;
9082;SDS011;4577;48.704;9.000;2023-01-01T02:25:11;13.47;;;9.57;;
9082;SDS011;4577;48.704;9.000;2023-01-01T02:30:54;8.63;;;6.17;;
9082;SDS011;4577;48.704;9.000;2023-01-01T02:33:22;7.80;;;5.83;;
9082;SDS011;4577;48.704;9.000;2023-01-01T02:35:51;10.70;;;8.33;;
9082;SDS011;4577;48.704;9.000;2023-01-01T02:41:03;17.33;;;11.30;;
9082;SDS011;4577;48.704;9.000;2023-01-01T02:43:32;14.07;;;11.00;;
9082;SDS011;4577;48.704;9.000;2023-01-01T02:45:58;11.43;;;7.90;;
9082;SDS011;4577;48.704;9.000;2023-01-01T02:54:09;8.87;;;4.07;;
9082;SDS011;4577;48.704;9.000;2023-01-01T02:56:53;5.83;;;3.67;;
9082;SDS011;4577;48.704;9.000;2023-01-01T02:59:28;5.73;;;3.83;;
9082;SDS011;4577;48.704;9.000;2023-01-01T03:05:14;4.93;;;3.13;;
9082;SDS011;4577;48.704;9.000;2023-01-01T03:08:07;4.83;;;3.30;;
9082;SDS011;4577;48.704;9.000;2023-01-01T03:15:57;4.17;;;3.03;;
9082;SDS011;4577;48.704;9.000;2023-01-01T03:18:42;6.67;;;2.70;;
9082;SDS011;4577;48.704;9.000;2023-01-01T03:21:34;4.90;;;3.10;;
9082;SDS011;4577;48.704;9.000;2023-01-01T03:24:05;5.20;;;2.80;;
9082;SDS011;4577;48.704;9.000;2023-01-01T03:26:33;5.77;;;3.00;;
9082;SDS011;4577;48.704;9.000;2023-01-01T03:29:00;3.77;;;2.70;;
9082;SDS011;4577;48.704;9.000;2023-01-01T03:31:34;6.00;;;3.20;;
9082;SDS011;4577;48.704;9.000;2023-01-01T03:34:05;4.70;;;3.43;;
9082;SDS011;4577;48.704;9.000;2023-01-01T03:36:36;4.80;;;3.10;;
9082;SDS011;4577;48.704;9.000;2023-01-01T03:39:08;6.63;;;3.30;;
9082;SDS011;4577;48.704;9.000;2023-01-01T03:44:56;5.03;;;3.10;;
9082;SDS011;4577;48.704;9.000;2023-01-01T03:47:27;4.83;;;2.73;;
9082;SDS011;4577;48.704;9.000;2023-01-01T03:49:54;6.57;;;3.00;;
9082;SDS011;4577;48.704;9.000;2023-01-01T03:57:50;4.20;;;2.90;;
9082;SDS011;4577;48.704;9.000;2023-01-01T04:00:35;8.10;;;3.20;;
9082;SDS011;4577;48.704;9.000;2023-01-01T04:03:06;6.17;;;3.57;;
9082;SDS011;4577;48.704;9.000;2023-01-01T04:05:40;3.97;;;3.57;;
9082;SDS011;4577;48.704;9.000;2023-01-01T04:08:06;4.97;;;3.40;;
9082;SDS011;4577;48.704;9.000;2023-01-01T04:10:34;5.33;;;3.70;;
9082;SDS011;4577;48.704;9.000;2023-01-01T04:13:04;5.83;;;3.67;;
9082;SDS011;4577;48.704;9.000;2023-01-01T04:15:30;8.20;;;4.00;;
9082;SDS011;4577;48.704;9.000;2023-01-01T04:17:57;7.17;;;3.90;;
9082;SDS011;4577;48.704;9.000;2023-01-01T04:20:22;7.00;;;3.80;;
9082;SDS011;4577;48.704;9.000;2023-01-01T04:22:49;7.43;;;4.53;;
9082;SDS011;4577;48.704;9.000;2023-01-01T04:25:15;5.60;;;3.80;;
9082;SDS011;4577;48.704;9.000;2023-01-01T04:27:44;8.73;;;4.33;;
9082;SDS011;4577;48.704;9.000;2023-01-01T04:30:10;6.57;;;3.40;;
9082;SDS011;4577;48.704;9.000;2023-01-01T04:32:38;5.10;;;3.50;;
9082;SDS011;4577;48.704;9.000;2023-01-01T04:35:04;4.23;;;3.33;;
9082;SDS011;4577;48.704;9.000;2023-01-01T04:37:31;3.87;;;3.30;;
9082;SDS011;4577;48.704;9.000;2023-01-01T04:39:57;5.33;;;3.80;;
9082;SDS011;4577;48.704;9.000;2023-01-01T04:42:22;4.37;;;3.80;;
9082;SDS011;4577;48.704;9.000;2023-01-01T04:44:48;8.07;;;4.17;;
9082;SDS011;4577;48.704;9.000;2023-01-01T04:47:14;6.37;;;4.30;;
9082;SDS011;4577;48.704;9.000;2023-01-01T04:49:40;5.43;;;4.23;;
9082;SDS011;4577;48.704;9.000;2023-01-01T04:52:06;5.73;;;4.30;;
9082;SDS011;4577;48.704;9.000;2023-01-01T04:54:31;7.10;;;3.97;;
9082;SDS011;4577;48.704;9.000;2023-01-01T04:56:57;7.40;;;3.50;;
9082;SDS011;4577;48.704;9.000;2023-01-01T04:59:23;5.43;;;3.50;;
9082;SDS011;4577;48.704;9.000;2023-01-01T05:01:48;3.57;;;2.90;;
9082;SDS011;4577;48.704;9.000;2023-01-01T05:04:14;6.00;;;3.00;;
9082;SDS011;4577;48.704;9.000;2023-01-01T05:06:41;3.70;;;2.80;;
9082;SDS011;4577;48.704;9.000;2023-01-01T05:09:08;4.77;;;2.90;;
9082;SDS011;4577;48.704;9.000;2023-01-01T05:11:34;5.10;;;2.90;;
9082;SDS011;4577;48.704;9.000;2023-01-01T05:14:00;5.27;;;2.40;;
9082;SDS011;4577;48.704;9.000;2023-01-01T05:16:34;4.40;;;2.83;;
9082;SDS011;4577;48.704;9.000;2023-01-01T05:19:01;6.80;;;2.90;;
9082;SDS011;4577;48.704;9.000;2023-01-01T05:21:28;4.73;;;3.00;;
9082;SDS011;4577;48.704;9.000;2023-01-01T05:24:02;4.43;;;3.13;;
9082;SDS011;4577;48.704;9.000;2023-01-01T05:26:31;8.47;;;3.17;;
9082;SDS011;4577;48.704;9.000;2023-01-01T05:28:58;4.83;;;3.07;;
9082;SDS011;4577;48.704;9.000;2023-01-01T05:31:26;4.07;;;2.80;;
9082;SDS011;4577;48.704;9.000;2023-01-01T05:33:54;3.30;;;2.73;;
9082;SDS011;4577;48.704;9.000;2023-01-01T05:36:24;4.67;;;3.10;;
9082;SDS011;4577;48.704;9.000;2023-01-01T05:38:54;6.43;;;2.60;;
9082;SDS011;4577;48.704;9.000;2023-01-01T05:41:21;5.57;;;2.60;;
9082;SDS011;4577;48.704;9.000;2023-01-01T05:43:47;4.00;;;2.60;;
9082;SDS011;4577;48.704;9.000;2023-01-01T05:46:14;3.50;;;2.40;;
9082;SDS011;4577;48.704;9.000;2023-01-01T05:48:42;5.37;;;2.57;;
9082;SDS011;4577;48.704;9.000;2023-01-01T05:51:12;3.70;;;2.47;;
9082;SDS011;4577;48.704;9.000;2023-01-01T05:53:38;6.07;;;3.10;;
9082;SDS011;4577;48.704;9.000;2023-01-01T05:56:05;3.20;;;2.60;;
9082;SDS011;4577;48.704;9.000;2023-01-01T05:58:32;3.90;;;2.50;;
9082;SDS011;4577;48.704;9.000;2023-01-01T06:01:05;4.37;;;2.63;;
9082;SDS011;4577;48.704;9.000;2023-01-01T06:03:37;3.67;;;3.00;;
9082;SDS011;4577;48.704;9.000;2023-01-01T06:06:07;5.57;;;3.23;;
9082;SDS011;4577;48.704;9.000;2023-01-01T06:08:37;9.13;;;3.37;;
9082;SDS011;4577;48.704;9.000;2023-01-01T06:11:04;6.33;;;3.63;;
9082;SDS011;4577;48.704;9.000;2023-01-01T06:13:32;8.00;;;3.80;;
9082;SDS011;4577;48.704;9.000;2023-01-01T06:15:59;7.27;;;4.13;;
9082;SDS011;4577;48.704;9.000;2023-01-01T06:18:28;7.40;;;4.10;;
9082;SDS011;4577;48.704;9.000;2023-01-01T06:21:02;5.47;;;4.13;;
9082;SDS011;4577;48.704;9.000;2023-01-01T06:23:38;11.93;;;4.07;;
9082;SDS011;4577;48.704;9.000;2023-01-01T06:26:09;5.63;;;3.73;;
9082;SDS011;4577;48.704;9.000;2023-01-01T06:28:46;6.67;;;4.10;;
9082;SDS011;4577;48.704;9.000;2023-01-01T06:31:14;5.00;;;3.63;;
9082;SDS011;4577;48.704;9.000;2023-01-01T06:33:43;5.93;;;3.83;;
9082;SDS011;4577;48.704;9.000;2023-01-01T06:36:10;7.27;;;3.80;;
9082;SDS011;4577;48.704;9.000;2023-01-01T06:38:38;6.80;;;4.80;;
9082;SDS011;4577;48.704;9.000;2023-01-01T06:41:06;6.60;;;4.20;;
9082;SDS011;4577;48.704;9.000;2023-01-01T06:43:35;9.03;;;4.20;;
9082;SDS011;4577;48.704;9.000;2023-01-01T06:48:35;9.90;;;3.90;;
9082;SDS011;4577;48.704;9.000;2023-01-01T06:51:11;6.90;;;3.80;;
9082;SDS011;4577;48.704;9.000;2023-01-01T06:53:38;6.07;;;3.90;;
9082;SDS011;4577;48.704;9.000;2023-01-01T06:56:04;6.23;;;3.57;;
9082;SDS011;4577;48.704;9.000;2023-01-01T06:58:31;25.70;;;7.33;;
9082;SDS011;4577;48.704;9.000;2023-01-01T07:03:34;10.80;;;4.00;;
9082;SDS011;4577;48.704;9.000;2023-01-01T07:06:01;51.97;;;11.20;;
9082;SDS011;4577;48.704;9.000;2023-01-01T07:08:27;5.17;;;3.33;;
9082;SDS011;4577;48.704;9.000;2023-01-01T07:10:52;10.87;;;4.20;;
9082;SDS011;4577;48.704;9.000;2023-01-01T07:13:21;7.20;;;4.30;;
9082;SDS011;4577;48.704;9.000;2023-01-01T07:15:47;42.87;;;11.17;;
9082;SDS011;4577;48.704;9.000;2023-01-01T07:18:13;18.10;;;6.37;;
9082;SDS011;4577;48.704;9.000;2023-01-01T07:20:39;15.50;;;5.43;;
9082;SDS011;4577;48.704;9.000;2023-01-01T07:23:05;12.43;;;5.00;;
9082;SDS011;4577;48.704;9.000;2023-01-01T07:25:30;6.67;;;3.77;;
9082;SDS011;4577;48.704;9.000;2023-01-01T07:27:56;5.33;;;3.90;;
9082;SDS011;4577;48.704;9.000;2023-01-01T07:30:21;6.93;;;3.80;;
9082;SDS011;4577;48.704;9.000;2023-01-01T07:32:52;9.00;;;4.20;;
9082;SDS011;4577;48.704;9.000;2023-01-01T07:35:19;8.33;;;3.70;;
9082;SDS011;4577;48.704;9.000;2023-01-01T07:37:44;4.90;;;3.90;;
9082;SDS011;4577;48.704;9.000;2023-01-01T07:40:10;32.43;;;7.27;;
9082;SDS011;4577;48.704;9.000;2023-01-01T07:42:36;7.13;;;4.00;;
9082;SDS011;4577;48.704;9.000;2023-01-01T07:45:02;9.70;;;4.10;;
9082;SDS011;4577;48.704;9.000;2023-01-01T07:47:28;7.53;;;4.77;;
9082;SDS011;4577;48.704;9.000;2023-01-01T07:49:54;8.20;;;4.33;;
9082;SDS011;4577;48.704;9.000;2023-01-01T07:52:20;6.93;;;4.53;;
9082;SDS011;4577;48.704;9.000;2023-01-01T07:54:46;9.90;;;4.50;;
9082;SDS011;4577;48.704;9.000;2023-01-01T07:57:12;17.57;;;6.70;;
9082;SDS011;4577;48.704;9.000;2023-01-01T07:59:38;22.07;;;6.37;;
9082;SDS011;4577;48.704;9.000;2023-01-01T08:02:03;12.13;;;5.27;;
9082;SDS011;4577;48.704;9.000;2023-01-01T08:04:29;14.50;;;4.73;;
9082;SDS011;4577;48.704;9.000;2023-01-01T08:06:55;14.93;;;5.30;;
9082;SDS011;4577;48.704;9.000;2023-01-01T08:09:21;9.43;;;4.40;;
9082;SDS011;4577;48.704;9.000;2023-01-01T08:11:47;7.33;;;4.23;;
9082;SDS011;4577;48.704;9.000;2023-01-01T08:14:12;12.97;;;4.90;;
9082;SDS011;4577;48.704;9.000;2023-01-01T08:16:38;8.93;;;4.10;;
9082;SDS011;4577;48.704;9.000;2023-01-01T08:19:04;9.20;;;4.23;;
9082;SDS011;4577;48.704;9.000;2023-01-01T08:21:30;7.37;;;4.20;;
9082;SDS011;4577;48.704;9.000;2023-01-01T08:23:56;8.23;;;4.83;;
9082;SDS011;4577;48.704;9.000;2023-01-01T08:26:29;6.47;;;4.27;;
9082;SDS011;4577;48.704;9.000;2023-01-01T08:28:56;6.20;;;3.80;;
9082;SDS011;4577;48.704;9.000;2023-01-01T08:31:22;8.73;;;3.67;;
9082;SDS011;4577;48.704;9.000;2023-01-01T08:33:48;6.17;;;4.27;;
9082;SDS011;4577;48.704;9.000;2023-01-01T08:36:14;5.10;;;3.83;;
9082;SDS011;4577;48.704;9.000;2023-01-01T08:38:40;12.27;;;6.00;;
9082;SDS011;4577;48.704;9.000;2023-01-01T08:41:07;6.73;;;4.37;;
9082;SDS011;4577;48.704;9.000;2023-01-01T08:43:33;6.87;;;4.80;;
9082;SDS011;4577;48.704;9.000;2023-01-01T08:45:59;6.63;;;4.70;;
9082;SDS011;4577;48.704;9.000;2023-01-01T08:48:25;6.70;;;4.73;;
9082;SDS011;4577;48.704;9.000;2023-01-01T08:50:51;6.20;;;4.53;;
9082;SDS011;4577;48.704;9.000;2023-01-01T08:53:22;6.13;;;3.83;;
9082;SDS011;4577;48.704;9.000;2023-01-01T08:58:28;19.87;;;7.40;;
9082;SDS011;4577;48.704;9.000;2023-01-01T09:00:54;6.87;;;4.23;;
9082;SDS011;4577;48.704;9.000;2023-01-01T09:03:20;7.60;;;4.30;;
9082;SDS011;4577;48.704;9.000;2023-01-01T09:05:46;7.37;;;4.20;;
9082;SDS011;4577;48.704;9.000;2023-01-01T09:08:12;5.77;;;4.50;;
9082;SDS011;4577;48.704;9.000;2023-01-01T09:10:39;6.80;;;4.70;;
9082;SDS011;4577;48.704;9.000;2023-01-01T09:13:07;21.03;;;6.47;;
9082;SDS011;4577;48.704;9.000;2023-01-01T09:15:33;5.60;;;4.30;;
9082;SDS011;4577;48.704;9.000;2023-01-01T09:17:59;42.57;;;10.47;;
9082;SDS011;4577;48.704;9.000;2023-01-01T09:20:24;7.83;;;4.07;;
9082;SDS011;4577;48.704;9.000;2023-01-01T09:22:50;8.50;;;4.50;;
9082;SDS011;4577;48.704;9.000;2023-01-01T09:25:16;22.07;;;6.50;;
9082;SDS011;4577;48.704;9.000;2023-01-01T09:27:42;9.33;;;4.67;;
9082;SDS011;4577;48.704;9.000;2023-01-01T09:30:07;7.33;;;4.60;;
9082;SDS011;4577;48.704;9.000;2023-01-01T09:32:33;29.67;;;8.00;;
9082;SDS011;4577;48.704;9.000;2023-01-01T09:34:59;7.17;;;4.20;;
9082;SDS011;4577;48.704;9.000;2023-01-01T09:37:25;10.80;;;5.23;;
9082;SDS011;4577;48.704;9.000;2023-01-01T09:39:51;9.67;;;4.40;;
9082;SDS011;4577;48.704;9.000;2023-01-01T09:42:21;10.17;;;4.00;;
9082;SDS011;4577;48.704;9.000;2023-01-01T09:47:31;12.63;;;4.60;;
9082;SDS011;4577;48.704;9.000;2023-01-01T09:50:11;11.60;;;4.80;;
9082;SDS011;4577;48.704;9.000;2023-01-01T09:52:45;39.80;;;7.43;;
9082;SDS011;4577;48.704;9.000;2023-01-01T09:55:28;9.50;;;4.50;;
9082;SDS011;4577;48.704;9.000;2023-01-01T09:58:10;10.87;;;4.67;;
9082;SDS011;4577;48.704;9.000;2023-01-01T10:00:36;18.30;;;5.80;;
9082;SDS011;4577;48.704;9.000;2023-01-01T10:03:09;9.63;;;4.97;;
9082;SDS011;4577;48.704;9.000;2023-01-01T10:05:57;13.33;;;4.60;;
9082;SDS011;4577;48.704;9.000;2023-01-01T10:08:38;6.90;;;4.50;;
9082;SDS011;4577;48.704;9.000;2023-01-01T10:11:12;12.83;;;4.80;;
9082;SDS011;4577;48.704;9.000;2023-01-01T10:13:59;19.03;;;6.80;;
9082;SDS011;4577;48.704;9.000;2023-01-01T10:19:19;8.77;;;5.13;;
9082;SDS011;4577;48.704;9.000;2023-01-01T10:21:47;9.03;;;4.60;;
9082;SDS011;4577;48.704;9.000;2023-01-01T10:24:37;9.27;;;4.57;;
9082;SDS011;4577;48.704;9.000;2023-01-01T10:27:26;9.67;;;5.10;;
9082;SDS011;4577;48.704;9.000;2023-01-01T10:29:56;24.10;;;8.43;;
9082;SDS011;4577;48.704;9.000;2023-01-01T10:34:54;23.60;;;8.20;;
9082;SDS011;4577;48.704;9.000;2023-01-01T10:37:22;7.70;;;4.17;;
9082;SDS011;4577;48.704;9.000;2023-01-01T10:39:48;7.57;;;4.20;;
9082;SDS011;4577;48.704;9.000;2023-01-01T10:42:14;5.50;;;4.00;;
9082;SDS011;4577;48.704;9.000;2023-01-01T10:44:41;28.17;;;7.97;;
9082;SDS011;4577;48.704;9.000;2023-01-01T10:49:53;12.57;;;5.10;;
9082;SDS011;4577;48.704;9.000;2023-01-01T10:52:22;38.43;;;10.17;;
9082;SDS011;4577;48.704;9.000;2023-01-01T10:54:51;15.47;;;5.47;;
9082;SDS011;4577;48.704;9.000;2023-01-01T10:59:52;6.83;;;3.97;;
9082;SDS011;4577;48.704;9.000;2023-01-01T11:04:45;14.77;;;6.07;;
9082;SDS011;4577;48.704;9.000;2023-01-01T11:07:24;16.73;;;4.87;;
9082;SDS011;4577;48.704;9.000;2023-01-01T11:09:58;11.50;;;4.00;;
9082;SDS011;4577;48.704;9.000;2023-01-01T11:12:28;15.40;;;3.60;;
9082;SDS011;4577;48.704;9.000;2023-01-01T11:14:57;24.63;;;6.33;;
9082;SDS011;4577;48.704;9.000;2023-01-01T11:17:27;12.23;;;4.27;;
9082;SDS011;4577;48.704;9.000;2023-01-01T11:19:56;5.33;;;3.63;;
9082;SDS011;4577;48.704;9.000;2023-01-01T11:22:39;7.80;;;3.60;;
9082;SDS011;4577;48.704;9.000;2023-01-01T11:25:28;15.90;;;6.50;;
9082;SDS011;4577;48.704;9.000;2023-01-01T11:30:40;18.53;;;5.80;;
9082;SDS011;4577;48.704;9.000;2023-01-01T11:33:22;17.47;;;4.90;;
9082;SDS011;4577;48.704;9.000;2023-01-01T11:35:49;7.37;;;3.60;;
9082;SDS011;4577;48.704;9.000;2023-01-01T11:38:19;6.00;;;3.20;;
9082;SDS011;4577;48.704;9.000;2023-01-01T11:40:47;10.00;;;3.43;;
9082;SDS011;4577;48.704;9.000;2023-01-01T11:43:18;4.10;;;2.77;;
9082;SDS011;4577;48.704;9.000;2023-01-01T11:45:46;5.37;;;2.80;;
9082;SDS011;4577;48.704;9.000;2023-01-01T11:48:17;8.27;;;3.30;;
9082;SDS011;4577;48.704;9.000;2023-01-01T11:50:51;45.73;;;10.53;;
9082;SDS011;4577;48.704;9.000;2023-01-01T11:53:40;6.90;;;3.30;;
9082;SDS011;4577;48.704;9.000;2023-01-01T11:56:22;21.30;;;4.47;;
9082;SDS011;4577;48.704;9.000;2023-01-01T11:58:55;13.20;;;5.90;;
9082;SDS011;4577;48.704;9.000;2023-01-01T12:01:24;13.43;;;7.30;;
9082;SDS011;4577;48.704;9.000;2023-01-01T12:04:08;17.20;;;10.43;;
9082;SDS011;4577;48.704;9.000;2023-01-01T12:07:07;13.30;;;6.40;;
9082;SDS011;4577;48.704;9.000;2023-01-01T12:14:54;12.53;;;5.63;;
9082;SDS011;4577;48.704;9.000;2023-01-01T12:17:42;8.50;;;2.60;;
9082;SDS011;4577;48.704;9.000;2023-01-01T12:20:27;39.00;;;21.93;;
9082;SDS011;4577;48.704;9.000;2023-01-01T12:23:03;27.77;;;12.63;;
9082;SDS011;4577;48.704;9.000;2023-01-01T12:25:34;11.30;;;3.13;;
9082;SDS011;4577;48.704;9.000;2023-01-01T12:33:55;14.90;;;8.50;;
9082;SDS011;4577;48.704;9.000;2023-01-01T12:37:25;23.80;;;13.47;;
9082;SDS011;4577;48.704;9.000;2023-01-01T12:47:49;12.73;;;6.97;;
9082;SDS011;4577;48.704;9.000;2023-01-01T12:58:38;12.10;;;4.53;;
9082;SDS011;4577;48.704;9.000;2023-01-01T13:06:19;31.43;;;11.10;;
9082;SDS011;4577;48.704;9.000;2023-01-01T13:08:51;18.00;;;7.70;;
9082;SDS011;4577;48.704;9.000;2023-01-01T13:11:20;15.03;;;8.37;;
9082;SDS011;4577;48.704;9.000;2023-01-01T13:13:49;13.57;;;7.90;;
9082;SDS011;4577;48.704;9.000;2023-01-01T13:16:30;27.43;;;14.40;;
9082;SDS011;4577;48.704;9.000;2023-01-01T13:18:57;57.27;;;36.40;;
9082;SDS011;4577;48.704;9.000;2023-01-01T13:21:24;109.57;;;68.63;;
9082;SDS011;4577;48.704;9.000;2023-01-01T13:23:52;102.97;;;54.60;;
9082;SDS011;4577;48.704;9.000;2023-01-01T13:39:53;41.37;;;20.07;;
9082;SDS011;4577;48.704;9.000;2023-01-01T13:50:39;39.53;;;20.20;;
9082;SDS011;4577;48.704;9.000;2023-01-01T13:56:14;33.57;;;14.20;;
9082;SDS011;4577;48.704;9.000;2023-01-01T13:59:19;10.73;;;4.40;;
9082;SDS011;4577;48.704;9.000;2023-01-01T14:02:28;13.63;;;3.93;;
9082;SDS011;4577;48.704;9.000;2023-01-01T14:05:03;16.60;;;3.63;;
9082;SDS011;4577;48.704;9.000;2023-01-01T14:12:39;25.50;;;14.00;;
9082;SDS011;4577;48.704;9.000;2023-01-01T14:17:54;27.33;;;15.13;;
9082;SDS011;4577;48.704;9.000;2023-01-01T14:20:26;28.40;;;16.10;;
9082;SDS011;4577;48.704;9.000;2023-01-01T14:23:04;10.50;;;5.40;;
9082;SDS011;4577;48.704;9.000;2023-01-01T14:25:41;10.73;;;4.07;;
9082;SDS011;4577;48.704;9.000;2023-01-01T14:30:50;9.73;;;6.53;;
9082;SDS011;4577;48.704;9.000;2023-01-01T14:33:28;21.93;;;12.07;;
9082;SDS011;4577;48.704;9.000;2023-01-01T14:35:59;71.10;;;44.57;;
9082;SDS011;4577;48.704;9.000;2023-01-01T14:43:49;42.00;;;27.43;;
9082;SDS011;4577;48.704;9.000;2023-01-01T14:46:22;51.50;;;30.40;;
9082;SDS011;4577;48.704;9.000;2023-01-01T14:48:50;18.87;;;11.77;;
9082;SDS011;4577;48.704;9.000;2023-01-01T14:51:20;19.50;;;10.00;;
9082;SDS011;4577;48.704;9.000;2023-01-01T14:53:47;24.50;;;6.30;;
9082;SDS011;4577;48.704;9.000;2023-01-01T14:56:24;12.80;;;6.13;;
9082;SDS011;4577;48.704;9.000;2023-01-01T14:59:16;59.93;;;15.07;;
9082;SDS011;4577;48.704;9.000;2023-01-01T15:02:00;65.60;;;14.53;;
9082;SDS011;4577;48.704;9.000;2023-01-01T15:04:28;46.83;;;12.90;;
9082;SDS011;4577;48.704;9.000;2023-01-01T15:06:55;51.17;;;18.20;;
9082;SDS011;4577;48.704;9.000;2023-01-01T15:09:21;75.53;;;22.60;;
9082;SDS011;4577;48.704;9.000;2023-01-01T15:11:51;42.67;;;13.90;;
9082;SDS011;4577;48.704;9.000;2023-01-01T15:14:31;42.93;;;16.10;;
9082;SDS011;4577;48.704;9.000;2023-01-01T15:17:05;21.90;;;8.80;;
9082;SDS011;4577;48.704;9.000;2023-01-01T15:19:35;19.43;;;7.60;;
9082;SDS011;4577;48.704;9.000;2023-01-01T15:22:11;12.13;;;7.33;;
9082;SDS011;4577;48.704;9.000;2023-01-01T15:24:46;24.93;;;8.00;;
9082;SDS011;4577;48.704;9.000;2023-01-01T15:27:19;16.60;;;5.77;;
9082;SDS011;4577;48.704;9.000;2023-01-01T15:29:48;12.40;;;5.90;;
9082;SDS011;4577;48.704;9.000;2023-01-01T15:32:15;35.87;;;11.57;;
9082;SDS011;4577;48.704;9.000;2023-01-01T15:34:48;22.70;;;9.43;;
9082;SDS011;4577;48.704;9.000;2023-01-01T15:37:24;19.77;;;10.37;;
9082;SDS011;4577;48.704;9.000;2023-01-01T15:39:59;29.90;;;12.07;;
9082;SDS011;4577;48.704;9.000;2023-01-01T15:42:45;22.33;;;11.60;;
9082;SDS011;4577;48.704;9.000;2023-01-01T15:45:39;27.70;;;9.70;;
9082;SDS011;4577;48.704;9.000;2023-01-01T15:53:22;21.67;;;8.80;;
9082;SDS011;4577;48.704;9.000;2023-01-01T15:55:58;33.40;;;10.80;;
9082;SDS011;4577;48.704;9.000;2023-01-01T16:01:04;90.17;;;58.63;;
9082;SDS011;4577;48.704;9.000;2023-01-01T16:03:32;48.47;;;26.73;;
9082;SDS011;4577;48.704;9.000;2023-01-01T16:06:00;26.37;;;12.50;;
9082;SDS011;4577;48.704;9.000;2023-01-01T16:08:25;21.30;;;11.00;;
9082;SDS011;4577;48.704;9.000;2023-01-01T16:10:51;25.63;;;10.73;;
9082;SDS011;4577;48.704;9.000;2023-01-01T16:13:18;22.37;;;10.57;;
9082;SDS011;4577;48.704;9.000;2023-01-01T16:15:49;43.60;;;17.90;;
9082;SDS011;4577;48.704;9.000;2023-01-01T16:18:16;39.27;;;16.20;;
9082;SDS011;4577;48.704;9.000;2023-01-01T16:20:46;34.47;;;12.80;;
9082;SDS011;4577;48.704;9.000;2023-01-01T16:23:12;29.97;;;9.70;;
9082;SDS011;4577;48.704;9.000;2023-01-01T16:25:37;27.47;;;7.97;;
9082;SDS011;4577;48.704;9.000;2023-01-01T16:28:13;29.53;;;8.90;;
9082;SDS011;4577;48.704;9.000;2023-01-01T16:30:42;22.33;;;8.40;;
9082;SDS011;4577;48.704;9.000;2023-01-01T16:33:15;23.53;;;11.50;;
9082;SDS011;4577;48.704;9.000;2023-01-01T16:35:43;27.83;;;13.47;;
9082;SDS011;4577;48.704;9.000;2023-01-01T16:38:09;34.13;;;15.57;;
9082;SDS011;4577;48.704;9.000;2023-01-01T16:40:35;81.13;;;41.20;;
9082;SDS011;4577;48.704;9.000;2023-01-01T16:43:01;58.00;;;33.03;;
9082;SDS011;4577;48.704;9.000;2023-01-01T16:45:28;29.23;;;15.90;;
9082;SDS011;4577;48.704;9.000;2023-01-01T16:47:54;21.63;;;11.83;;
9082;SDS011;4577;48.704;9.000;2023-01-01T16:50:20;28.50;;;13.50;;
9082;SDS011;4577;48.704;9.000;2023-01-01T16:52:46;32.50;;;17.40;;
9082;SDS011;4577;48.704;9.000;2023-01-01T16:55:12;97.50;;;43.50;;
9082;SDS011;4577;48.704;9.000;2023-01-01T16:57:38;110.60;;;49.50;;
9082;SDS011;4577;48.704;9.000;2023-01-01T17:00:04;104.93;;;50.50;;
9082;SDS011;4577;48.704;9.000;2023-01-01T17:02:31;115.13;;;53.03;;
9082;SDS011;4577;48.704;9.000;2023-01-01T17:04:57;67.63;;;32.87;;
9082;SDS011;4577;48.704;9.000;2023-01-01T17:07:23;46.33;;;24.20;;
9082;SDS011;4577;48.704;9.000;2023-01-01T17:09:49;44.03;;;23.10;;
9082;SDS011;4577;48.704;9.000;2023-01-01T17:12:15;38.23;;;20.83;;
9082;SDS011;4577;48.704;9.000;2023-01-01T17:14:41;44.33;;;21.70;;
9082;SDS011;4577;48.704;9.000;2023-01-01T17:17:07;48.63;;;24.07;;
9082;SDS011;4577;48.704;9.000;2023-01-01T17:19:33;41.80;;;18.90;;
9082;SDS011;4577;48.704;9.000;2023-01-01T17:21:59;32.40;;;17.40;;
9082;SDS011;4577;48.704;9.000;2023-01-01T17:24:25;37.57;;;17.00;;
9082;SDS011;4577;48.704;9.000;2023-01-01T17:26:52;49.33;;;26.40;;
9082;SDS011;4577;48.704;9.000;2023-01-01T17:29:19;37.37;;;18.30;;
9082;SDS011;4577;48.704;9.000;2023-01-01T17:31:45;49.53;;;25.03;;
9082;SDS011;4577;48.704;9.000;2023-01-01T17:34:11;39.07;;;20.17;;
9082;SDS011;4577;48.704;9.000;2023-01-01T17:36:38;19.70;;;10.40;;
9082;SDS011;4577;48.704;9.000;2023-01-01T17:39:04;13.07;;;7.73;;
9082;SDS011;4577;48.704;9.000;2023-01-01T17:41:30;22.70;;;9.90;;
9082;SDS011;4577;48.704;9.000;2023-01-01T17:43:57;33.23;;;15.57;;